createdAt,value
2023-02-19T00:00:50.261Z,100530.66
2023-02-19T00:02:53.214Z,100532.50
2023-02-19T00:04:56.143Z,100519.84
2023-02-19T00:06:59.155Z,100529.44
2023-02-19T00:09:02.776Z,100525.69
2023-02-19T00:11:06.977Z,100536.06
2023-02-19T00:13:09.971Z,100537.91
2023-02-19T00:15:12.857Z,100539.59
2023-02-19T00:17:17.102Z,100539.72
2023-02-19T00:19:21.941Z,100542.38
2023-02-19T00:21:25.468Z,100539.66
2023-02-19T00:23:29.350Z,100540.34
2023-02-19T00:25:32.226Z,100537.97
2023-02-19T00:27:35.140Z,100545.41
2023-02-19T00:29:38.067Z,100538.16
2023-02-19T00:31:41.494Z,100542.34
2023-02-19T00:33:45.921Z,100538.09
2023-02-19T00:35:48.790Z,100534.72
2023-02-19T00:37:52.058Z,100538.28
2023-02-19T00:39:54.954Z,100527.66
2023-02-19T00:41:59.392Z,100518.00
2023-02-19T00:44:03.813Z,100521.44
2023-02-19T00:46:06.745Z,100511.38
2023-02-19T00:48:09.699Z,100518.00
2023-02-19T00:50:13.953Z,100512.25
2023-02-19T00:52:17.227Z,100506.97
2023-02-19T00:54:20.510Z,100513.72
2023-02-19T00:56:24.194Z,100510.66
2023-02-19T00:58:27.442Z,100511.03
2023-02-19T01:00:34.722Z,100516.03
2023-02-19T01:02:37.959Z,100513.59
2023-02-19T01:04:40.931Z,100504.56
2023-02-19T01:06:45.416Z,100508.06
2023-02-19T01:08:49.150Z,100510.53
2023-02-19T01:10:52.160Z,100508.66
2023-02-19T01:12:56.227Z,100498.09
2023-02-19T01:14:59.104Z,100504.84
2023-02-19T01:17:02.293Z,100504.13
2023-02-19T01:19:05.509Z,100498.69
2023-02-19T01:21:10.135Z,100503.28
2023-02-19T01:23:15.398Z,100498.34
2023-02-19T01:25:18.280Z,100502.16
2023-02-19T01:27:21.741Z,100512.38
2023-02-19T01:29:24.638Z,100514.06
2023-02-19T01:31:28.182Z,100505.72
2023-02-19T01:33:31.345Z,100508.78
2023-02-19T01:35:34.594Z,100505.66
2023-02-19T01:37:37.463Z,100510.28
2023-02-19T01:39:41.715Z,100505.97
2023-02-19T01:41:45.352Z,100508.44
2023-02-19T01:43:58.150Z,100499.94
2023-02-19T01:46:01.418Z,100498.47
2023-02-19T01:48:08.308Z,100498.22
2023-02-19T01:50:11.816Z,100485.22
2023-02-19T01:52:17.114Z,100485.84
2023-02-19T01:54:21.660Z,100488.94
2023-02-19T01:56:27.115Z,100486.81
2023-02-19T01:58:32.876Z,100484.91
2023-02-19T02:00:35.954Z,100477.06
2023-02-19T02:02:39.794Z,100481.88
2023-02-19T02:04:42.723Z,100477.38
2023-02-19T02:06:49.604Z,100483.56
2023-02-19T02:09:11.733Z,100482.16
2023-02-19T02:11:14.630Z,100485.34
2023-02-19T02:13:19.259Z,100486.25
2023-02-19T02:15:24.116Z,100481.75
2023-02-19T02:17:29.377Z,100492.69
2023-02-19T02:19:45.651Z,100483.88
2023-02-19T02:22:00.308Z,100492.94
2023-02-19T02:24:13.867Z,100497.88
2023-02-19T02:26:26.514Z,100503.81
2023-02-19T02:28:42.671Z,100493.06
2023-02-19T02:30:48.829Z,100477.84
2023-02-19T02:32:56.241Z,100490.41
2023-02-19T02:35:01.458Z,100499.16
2023-02-19T02:37:08.031Z,100494.00
2023-02-19T02:39:14.308Z,100504.22
2023-02-19T02:41:17.603Z,100501.66
2023-02-19T02:43:20.546Z,100496.13
2023-02-19T02:45:36.890Z,100494.88
2023-02-19T02:48:00.617Z,100500.44
2023-02-19T02:50:06.804Z,100495.97
2023-02-19T02:52:35.465Z,100500.50
2023-02-19T02:54:55.832Z,100494.97
2023-02-19T02:56:59.583Z,100493.41
2023-02-19T02:59:07.932Z,100507.94
2023-02-19T03:01:30.716Z,100503.56
2023-02-19T03:03:36.403Z,100506.19
2023-02-19T03:05:54.437Z,100508.16
2023-02-19T03:08:00.229Z,100509.66
2023-02-19T03:10:04.804Z,100502.16
2023-02-19T03:12:29.845Z,100507.22
2023-02-19T03:14:54.325Z,100516.28
2023-02-19T03:17:17.418Z,100510.72
2023-02-19T03:19:23.460Z,100510.41
2023-02-19T03:21:27.425Z,100504.84
2023-02-19T03:23:47.194Z,100511.13
2023-02-19T03:26:05.791Z,100518.19
2023-02-19T03:28:19.279Z,100521.19
2023-02-19T03:30:24.743Z,100516.47
2023-02-19T03:32:31.223Z,100519.00
2023-02-19T03:34:37.417Z,100519.88
2023-02-19T03:36:43.683Z,100527.78
2023-02-19T03:38:50.411Z,100524.75
2023-02-19T03:40:57.613Z,100516.09
2023-02-19T03:43:04.620Z,100522.94
2023-02-19T03:45:16.453Z,100530.66
2023-02-19T03:47:24.571Z,100535.19
2023-02-19T03:49:32.163Z,100532.88
2023-02-19T03:51:40.371Z,100533.75
2023-02-19T03:53:50.918Z,100535.31
2023-02-19T03:56:04.648Z,100541.84
2023-02-19T03:58:13.199Z,100543.56
2023-02-19T04:00:19.451Z,100551.31
2023-02-19T04:02:29.199Z,100547.13
2023-02-19T04:04:33.910Z,100559.28
2023-02-19T04:06:38.513Z,100551.72
2023-02-19T04:08:44.448Z,100562.47
2023-02-19T04:10:48.365Z,100569.38
2023-02-19T04:12:55.618Z,100576.69
2023-02-19T04:15:01.113Z,100567.97
2023-02-19T04:17:09.918Z,100572.22
2023-02-19T04:19:13.783Z,100572.16
2023-02-19T04:21:16.955Z,100576.34
2023-02-19T04:23:24.534Z,100576.53
2023-02-19T04:25:28.469Z,100582.84
2023-02-19T04:27:31.400Z,100586.59
2023-02-19T04:29:34.227Z,100587.25
2023-02-19T04:31:37.547Z,100581.16
2023-02-19T04:33:40.423Z,100580.41
2023-02-19T04:35:43.519Z,100588.25
2023-02-19T04:37:46.330Z,100595.25
2023-02-19T04:39:50.532Z,100595.25
2023-02-19T04:41:53.602Z,100600.94
2023-02-19T04:43:56.785Z,100605.22
2023-02-19T04:46:01.697Z,100608.53
2023-02-19T04:48:04.879Z,100615.34
2023-02-19T04:50:08.019Z,100617.53
2023-02-19T04:52:11.070Z,100614.66
2023-02-19T04:54:14.244Z,100615.81
2023-02-19T04:56:18.826Z,100612.41
2023-02-19T04:58:22.525Z,100621.25
2023-02-19T05:00:25.341Z,100630.09
2023-02-19T05:02:28.569Z,100618.31
2023-02-19T05:04:31.617Z,100621.22
2023-02-19T05:06:35.103Z,100618.31
2023-02-19T05:08:38.070Z,100627.34
2023-02-19T05:10:40.930Z,100631.53
2023-02-19T05:12:45.385Z,100628.06
2023-02-19T05:14:48.288Z,100631.66
2023-02-19T05:16:51.731Z,100640.47
2023-02-19T05:18:54.819Z,100645.00
2023-02-19T05:20:58.474Z,100643.22
2023-02-19T05:23:01.315Z,100650.94
2023-02-19T05:25:04.500Z,100652.06
2023-02-19T05:27:07.354Z,100652.41
2023-02-19T05:29:11.573Z,100649.69
2023-02-19T05:31:15.377Z,100648.41
2023-02-19T05:33:19.811Z,100657.22
2023-02-19T05:35:22.754Z,100656.16
2023-02-19T05:37:25.737Z,100655.00
2023-02-19T05:39:29.024Z,100665.47
2023-02-19T05:41:32.074Z,100671.31
2023-02-19T05:43:36.681Z,100671.19
2023-02-19T05:45:41.466Z,100672.69
2023-02-19T05:47:44.722Z,100676.31
2023-02-19T05:49:47.867Z,100682.50
2023-02-19T05:51:52.460Z,100687.97
2023-02-19T05:53:59.646Z,100682.06
2023-02-19T05:56:02.635Z,100684.16
2023-02-19T05:58:06.391Z,100684.84
2023-02-19T06:00:12.295Z,100684.00
2023-02-19T06:02:16.478Z,100683.75
2023-02-19T06:04:27.370Z,100685.25
2023-02-19T06:06:30.776Z,100689.97
2023-02-19T06:08:33.863Z,100688.91
2023-02-19T06:10:37.860Z,100688.78
2023-02-19T06:12:40.844Z,100694.06
2023-02-19T06:14:44.035Z,100694.00
2023-02-19T06:16:46.929Z,100694.97
2023-02-19T06:18:51.431Z,100691.41
2023-02-19T06:20:54.263Z,100700.31
2023-02-19T06:22:57.196Z,100689.59
2023-02-19T06:25:00.367Z,100699.63
2023-02-19T06:27:06.768Z,100700.19
2023-02-19T06:29:09.652Z,100710.88
2023-02-19T06:31:15.484Z,100711.09
2023-02-19T06:33:18.591Z,100713.38
2023-02-19T06:35:23.262Z,100718.09
2023-02-19T06:37:26.084Z,100723.25
2023-02-19T06:39:29.015Z,100718.09
2023-02-19T06:41:31.954Z,100720.69
2023-02-19T06:43:35.537Z,100724.25
2023-02-19T06:45:38.373Z,100724.69
2023-02-19T06:47:41.257Z,100725.44
2023-02-19T06:49:44.119Z,100731.91
2023-02-19T06:51:48.397Z,100736.56
2023-02-19T06:53:51.593Z,100734.88
2023-02-19T06:55:58.317Z,100741.16
2023-02-19T06:58:01.405Z,100739.66
2023-02-19T07:00:05.361Z,100734.63
2023-02-19T07:02:08.645Z,100744.25
2023-02-19T07:04:11.929Z,100755.50
2023-02-19T07:06:14.940Z,100748.19
2023-02-19T07:08:19.616Z,100756.38
2023-02-19T07:10:22.601Z,100751.63
2023-02-19T07:12:25.515Z,100759.41
2023-02-19T07:14:29.687Z,100765.19
2023-02-19T07:16:32.718Z,100768.66
2023-02-19T07:18:36.133Z,100786.00
2023-02-19T07:20:38.995Z,100790.97
2023-02-19T07:22:42.065Z,100795.72
2023-02-19T07:24:47.952Z,100798.25
2023-02-19T07:26:50.951Z,100801.72
2023-02-19T07:28:54.438Z,100797.38
2023-02-19T07:31:01.373Z,100807.84
2023-02-19T07:33:04.447Z,100804.28
2023-02-19T07:35:08.305Z,100806.38
2023-02-19T07:37:11.140Z,100810.72
2023-02-19T07:39:15.694Z,100826.88
2023-02-19T07:41:20.305Z,100823.97
2023-02-19T07:43:24.376Z,100824.97
2023-02-19T07:45:53.056Z,100838.69
2023-02-19T07:47:55.965Z,100835.66
2023-02-19T07:49:58.787Z,100838.00
2023-02-19T07:52:01.759Z,100844.97
2023-02-19T07:54:04.842Z,100848.63
2023-02-19T07:56:08.901Z,100848.44
2023-02-19T07:58:13.392Z,100849.09
2023-02-19T08:00:16.936Z,100843.22
2023-02-19T08:02:38.944Z,100853.31
2023-02-19T08:04:41.812Z,100857.88
2023-02-19T08:06:44.959Z,100860.41
2023-02-19T08:08:47.935Z,100867.97
2023-02-19T08:11:08.590Z,100865.34
2023-02-19T08:13:19.601Z,100879.22
2023-02-19T08:15:22.584Z,100881.66
2023-02-19T08:17:25.538Z,100883.59
2023-02-19T08:19:28.469Z,100882.44
2023-02-19T08:21:33.427Z,100890.94
2023-02-19T08:23:37.210Z,100890.38
2023-02-19T08:25:40.564Z,100888.06
2023-02-19T08:27:43.590Z,100882.19
2023-02-19T08:29:47.805Z,100884.00
2023-02-19T08:31:50.758Z,100893.41
2023-02-19T08:33:53.733Z,100880.72
2023-02-19T08:35:56.640Z,100894.47
2023-02-19T08:38:00.139Z,100880.53
2023-02-19T08:40:03.163Z,100890.88
2023-02-19T08:42:09.453Z,100895.56
2023-02-19T08:44:12.265Z,100902.63
2023-02-19T08:46:16.631Z,100903.03
2023-02-19T08:48:19.706Z,100912.38
2023-02-19T08:50:22.908Z,100902.88
2023-02-19T08:52:25.717Z,100896.72
2023-02-19T08:54:28.540Z,100910.13
2023-02-19T08:56:31.383Z,100907.28
2023-02-19T08:58:34.545Z,100910.19
2023-02-19T09:00:37.514Z,100900.78
2023-02-19T09:02:41.704Z,100900.63
2023-02-19T09:04:49.804Z,100905.91
2023-02-19T09:06:52.951Z,100914.38
2023-02-19T09:08:55.804Z,100918.88
2023-02-19T09:10:59.701Z,100909.91
2023-02-19T09:13:02.740Z,100921.25
2023-02-19T09:15:06.105Z,100925.41
2023-02-19T09:17:10.514Z,100920.06
2023-02-19T09:19:14.821Z,100935.19
2023-02-19T09:21:17.683Z,100925.06
2023-02-19T09:23:20.501Z,100929.81
2023-02-19T09:25:23.367Z,100940.56
2023-02-19T09:27:26.243Z,100945.00
2023-02-19T09:29:30.152Z,100945.66
2023-02-19T09:31:35.246Z,100951.44
2023-02-19T09:33:38.476Z,100950.53
2023-02-19T09:35:42.876Z,100952.59
2023-02-19T09:37:45.932Z,100960.34
2023-02-19T09:39:48.822Z,100955.97
2023-02-19T09:41:53.678Z,100955.84
2023-02-19T09:43:56.919Z,100971.22
2023-02-19T09:46:04.538Z,100966.59
2023-02-19T09:48:09.796Z,100969.13
2023-02-19T09:50:16.048Z,100972.09
2023-02-19T09:52:26.797Z,100970.56
2023-02-19T09:54:31.706Z,100979.09
2023-02-19T09:56:34.996Z,100986.97
2023-02-19T09:58:44.239Z,100989.44
2023-02-19T10:00:49.142Z,100996.25
2023-02-19T10:02:53.610Z,101003.41
2023-02-19T10:04:56.487Z,101004.25
2023-02-19T10:07:03.627Z,101007.75
2023-02-19T10:09:20.212Z,101014.78
2023-02-19T10:11:24.895Z,101019.56
2023-02-19T10:13:32.560Z,101020.38
2023-02-19T10:15:37.897Z,101021.13
2023-02-19T10:17:40.764Z,101029.53
2023-02-19T10:19:44.056Z,101033.00
2023-02-19T10:21:47.505Z,101036.00
2023-02-19T10:23:53.514Z,101042.13
2023-02-19T10:25:59.282Z,101039.41
2023-02-19T10:28:02.919Z,101042.53
2023-02-19T10:30:07.545Z,101054.81
2023-02-19T10:32:14.381Z,101057.28
2023-02-19T10:34:22.097Z,101058.34
2023-02-19T10:36:31.899Z,101068.97
2023-02-19T10:38:37.880Z,101068.00
2023-02-19T10:40:45.051Z,101068.91
2023-02-19T10:42:50.558Z,101062.44
2023-02-19T10:44:58.702Z,101060.72
2023-02-19T10:47:02.228Z,101064.38
2023-02-19T10:49:06.752Z,101066.28
2023-02-19T10:51:11.078Z,101058.25
2023-02-19T10:53:23.445Z,101071.50
2023-02-19T10:55:29.551Z,101080.16
2023-02-19T10:57:33.382Z,101080.84
2023-02-19T10:59:37.939Z,101089.25
2023-02-19T11:01:54.774Z,101095.72
2023-02-19T11:04:18.234Z,101095.72
2023-02-19T11:06:22.881Z,101096.53
2023-02-19T11:08:25.858Z,101106.63
2023-02-19T11:10:30.184Z,101095.00
2023-02-19T11:12:34.781Z,101088.78
2023-02-19T11:14:42.808Z,101089.50
2023-02-19T11:16:47.871Z,101103.00
2023-02-19T11:18:57.256Z,101102.00
2023-02-19T11:21:02.543Z,101105.88
2023-02-19T11:23:14.617Z,101111.47
2023-02-19T11:25:21.688Z,101112.25
2023-02-19T11:27:25.956Z,101114.38
2023-02-19T11:29:34.657Z,101107.56
2023-02-19T11:31:39.230Z,101105.34
2023-02-19T11:33:45.323Z,101116.34
2023-02-19T11:35:48.849Z,101117.94
2023-02-19T11:37:56.848Z,101130.41
2023-02-19T11:39:59.960Z,101121.56
2023-02-19T11:42:22.951Z,101126.81
2023-02-19T11:44:33.010Z,101116.19
2023-02-19T11:46:41.854Z,101113.78
2023-02-19T11:48:54.726Z,101111.88
2023-02-19T11:51:10.242Z,101105.34
2023-02-19T11:53:18.238Z,101117.75
2023-02-19T11:55:26.795Z,101110.69
2023-02-19T11:57:39.447Z,101109.72
2023-02-19T11:59:46.928Z,101115.16
2023-02-19T12:02:12.798Z,101112.50
2023-02-19T12:04:43.913Z,101101.13
2023-02-19T12:06:54.421Z,101112.41
2023-02-19T12:09:17.761Z,101121.25
2023-02-19T12:11:41.836Z,101112.94
2023-02-19T12:13:57.195Z,101110.34
2023-02-19T12:16:11.358Z,101108.44
2023-02-19T12:18:28.673Z,101119.09
2023-02-19T12:20:36.190Z,101121.69
2023-02-19T12:22:42.950Z,101121.09
2023-02-19T12:25:05.590Z,101128.41
2023-02-19T12:27:20.512Z,101130.34
2023-02-19T12:29:45.426Z,101130.75
2023-02-19T12:32:07.642Z,101137.38
2023-02-19T12:34:31.698Z,101139.91
2023-02-19T12:36:39.152Z,101141.72
2023-02-19T12:38:45.469Z,101151.13
2023-02-19T12:40:59.051Z,101150.75
2023-02-19T12:43:11.208Z,101137.50
2023-02-19T12:45:20.175Z,101146.41
2023-02-19T12:47:26.113Z,101156.97
2023-02-19T12:49:33.485Z,101147.28
2023-02-19T12:51:40.686Z,101152.69
2023-02-19T12:53:47.942Z,101153.53
2023-02-19T12:55:51.139Z,101155.06
2023-02-19T12:57:55.143Z,101160.19
2023-02-19T13:00:03.627Z,101168.84
2023-02-19T13:02:13.886Z,101167.19
2023-02-19T13:04:26.416Z,101159.56
2023-02-19T13:06:37.044Z,101160.75
2023-02-19T13:09:04.721Z,101164.25
2023-02-19T13:11:08.093Z,101169.06
2023-02-19T13:13:15.258Z,101172.47
2023-02-19T13:15:22.886Z,101164.44
2023-02-19T13:17:28.893Z,101160.00
2023-02-19T13:19:32.273Z,101157.28
2023-02-19T13:21:55.852Z,101164.34
2023-02-19T13:24:03.308Z,101163.25
2023-02-19T13:26:24.727Z,101176.13
2023-02-19T13:28:48.631Z,101178.78
2023-02-19T13:31:08.759Z,101173.50
2023-02-19T13:33:27.005Z,101176.97
2023-02-19T13:35:52.606Z,101178.69
2023-02-19T13:38:01.796Z,101181.22
2023-02-19T13:40:20.792Z,101184.63
2023-02-19T13:42:26.878Z,101184.47
2023-02-19T13:44:31.463Z,101190.47
2023-02-19T13:46:37.860Z,101188.53
2023-02-19T13:48:43.366Z,101190.09
2023-02-19T13:50:46.231Z,101197.19
2023-02-19T13:52:49.136Z,101200.50
2023-02-19T13:54:53.420Z,101203.16
2023-02-19T13:57:48.830Z,101203.91
2023-02-19T13:59:52.123Z,101209.22
2023-02-19T14:02:14.447Z,101216.97
2023-02-19T14:04:21.018Z,101225.78
2023-02-19T14:06:24.160Z,101228.44
2023-02-19T14:08:49.252Z,101235.31
2023-02-19T14:10:57.648Z,101227.91
2023-02-19T14:13:00.614Z,101233.34
2023-02-19T14:15:44.583Z,101229.03
2023-02-19T14:17:47.568Z,101230.38
2023-02-19T14:19:55.875Z,101231.03
2023-02-19T14:21:59.104Z,101237.25
2023-02-19T14:24:03.016Z,101243.53
2023-02-19T14:26:08.151Z,101240.28
2023-02-19T14:28:30.711Z,101250.72
2023-02-19T14:30:35.744Z,101255.78
2023-02-19T14:32:42.192Z,101249.47
2023-02-19T14:34:46.728Z,101251.84
2023-02-19T14:36:51.816Z,101257.91
2023-02-19T14:38:56.568Z,101249.78
2023-02-19T14:40:59.845Z,101242.59
2023-02-19T14:43:05.960Z,101246.69
2023-02-19T14:45:09.918Z,101250.16
2023-02-19T14:47:15.751Z,101253.63
2023-02-19T14:49:22.370Z,101249.00
2023-02-19T14:51:32.726Z,101259.56
2023-02-19T14:53:43.478Z,101249.66
2023-02-19T14:55:47.941Z,101251.28
2023-02-19T14:57:51.594Z,101245.38
2023-02-19T14:59:58.625Z,101240.81
2023-02-19T15:02:03.646Z,101230.16
2023-02-19T15:04:07.321Z,101238.22
2023-02-19T15:06:16.404Z,101233.78
2023-02-19T15:08:24.018Z,101226.81
2023-02-19T15:10:28.335Z,101223.13
2023-02-19T15:12:34.843Z,101223.25
2023-02-19T15:14:37.708Z,101220.44
2023-02-19T15:16:41.942Z,101223.28
2023-02-19T15:18:46.285Z,101218.41
2023-02-19T15:20:49.846Z,101214.88
2023-02-19T15:22:53.492Z,101212.91
2023-02-19T15:24:56.477Z,101215.38
2023-02-19T15:26:59.432Z,101202.69
2023-02-19T15:29:04.503Z,101204.38
2023-02-19T15:31:14.962Z,101190.13
2023-02-19T15:33:20.708Z,101193.34
2023-02-19T15:35:25.158Z,101184.47
2023-02-19T15:37:29.471Z,101172.69
2023-02-19T15:39:39.136Z,101170.66
2023-02-19T15:41:45.028Z,101176.59
2023-02-19T15:43:51.229Z,101182.69
2023-02-19T15:45:56.627Z,101178.34
2023-02-19T15:48:01.615Z,101192.03
2023-02-19T15:50:09.581Z,101189.78
2023-02-19T15:52:18.875Z,101190.59
2023-02-19T15:54:27.182Z,101192.47
2023-02-19T15:56:35.923Z,101202.28
2023-02-19T15:58:42.801Z,101202.84
2023-02-19T16:00:48.466Z,101200.97
2023-02-19T16:02:51.730Z,101200.84
2023-02-19T16:04:54.596Z,101202.47
2023-02-19T16:06:59.792Z,101211.22
2023-02-19T16:09:04.626Z,101204.69
2023-02-19T16:11:08.821Z,101200.28
2023-02-19T16:13:12.917Z,101205.34
2023-02-19T16:15:16.293Z,101204.53
2023-02-19T16:17:21.264Z,101208.06
2023-02-19T16:19:28.223Z,101207.88
2023-02-19T16:21:31.398Z,101214.94
2023-02-19T16:23:35.639Z,101219.41
2023-02-19T16:25:42.753Z,101216.81
2023-02-19T16:27:45.622Z,101228.38
2023-02-19T16:29:51.757Z,101219.31
2023-02-19T16:31:57.911Z,101227.69
2023-02-19T16:34:17.250Z,101228.63
2023-02-19T16:36:41.559Z,101228.44
2023-02-19T16:39:01.188Z,101227.56
2023-02-19T16:41:13.239Z,101228.44
2023-02-19T16:43:31.237Z,101234.50
2023-02-19T16:45:34.409Z,101227.50
2023-02-19T16:47:41.614Z,101232.19
2023-02-19T16:49:44.956Z,101230.28
2023-02-19T16:51:48.384Z,101236.34
2023-02-19T16:53:51.330Z,101245.50
2023-02-19T16:55:55.539Z,101243.84
2023-02-19T16:57:58.448Z,101242.72
2023-02-19T17:00:01.280Z,101248.16
2023-02-19T17:02:05.145Z,101257.78
2023-02-19T17:04:09.484Z,101263.75
2023-02-19T17:06:12.825Z,101272.66
2023-02-19T17:08:33.871Z,101278.22
2023-02-19T17:10:36.829Z,101283.19
2023-02-19T17:12:41.061Z,101288.69
2023-02-19T17:14:43.995Z,101290.38
2023-02-19T17:16:47.056Z,101295.66
2023-02-19T17:18:50.376Z,101289.66
2023-02-19T17:20:56.502Z,101294.88
2023-02-19T17:22:59.502Z,101305.78
2023-02-19T17:25:02.446Z,101296.03
2023-02-19T17:27:05.394Z,101293.31
2023-02-19T17:29:14.337Z,101287.28
2023-02-19T17:31:17.841Z,101293.59
2023-02-19T17:33:20.847Z,101298.41
2023-02-19T17:35:23.793Z,101295.63
2023-02-19T17:37:26.716Z,101295.63
2023-02-19T17:39:29.595Z,101292.09
2023-02-19T17:41:32.525Z,101289.72
2023-02-19T17:43:35.828Z,101303.53
2023-02-19T17:45:40.208Z,101291.69
2023-02-19T17:47:43.185Z,101296.88
2023-02-19T17:49:46.107Z,101295.22
2023-02-19T17:51:48.923Z,101297.56
2023-02-19T17:53:51.812Z,101301.94
2023-02-19T17:55:54.764Z,101294.88
2023-02-19T17:57:57.751Z,101289.97
2023-02-19T18:00:00.669Z,101297.63
2023-02-19T18:02:05.035Z,101296.94
2023-02-19T18:04:08.260Z,101290.75
2023-02-19T18:06:11.354Z,101293.19
2023-02-19T18:08:14.904Z,101302.88
2023-02-19T18:10:19.442Z,101298.63
2023-02-19T18:12:22.410Z,101296.88
2023-02-19T18:14:25.358Z,101295.22
2023-02-19T18:16:28.326Z,101305.53
2023-02-19T18:18:33.031Z,101284.13
2023-02-19T18:20:36.092Z,101299.75
2023-02-19T18:22:41.395Z,101306.81
2023-02-19T18:24:46.899Z,101313.88
2023-02-19T18:26:51.181Z,101312.53
2023-02-19T18:28:54.157Z,101321.97
2023-02-19T18:30:57.206Z,101328.81
2023-02-19T18:33:00.109Z,101321.78
2023-02-19T18:35:05.518Z,101329.53
2023-02-19T18:37:08.433Z,101338.41
2023-02-19T18:39:11.665Z,101340.19
2023-02-19T18:41:19.798Z,101337.50
2023-02-19T18:43:23.134Z,101341.06
2023-02-19T18:45:26.106Z,101348.69
2023-02-19T18:47:29.459Z,101344.22
2023-02-19T18:49:32.504Z,101351.22
2023-02-19T18:51:36.788Z,101352.00
2023-02-19T18:53:39.806Z,101360.09
2023-02-19T18:55:42.945Z,101362.69
2023-02-19T18:57:46.645Z,101367.34
2023-02-19T18:59:49.716Z,101387.34
2023-02-19T19:01:53.626Z,101384.91
2023-02-19T19:03:56.577Z,101393.72
2023-02-19T19:05:59.687Z,101387.94
2023-02-19T19:08:03.873Z,101408.09
2023-02-19T19:10:08.392Z,101391.47
2023-02-19T19:12:11.450Z,101399.19
2023-02-19T19:14:14.387Z,101404.63
2023-02-19T19:16:17.214Z,101404.50
2023-02-19T19:18:20.086Z,101405.56
2023-02-19T19:20:23.911Z,101408.34
2023-02-19T19:22:26.801Z,101412.56
2023-02-19T19:24:31.041Z,101420.38
2023-02-19T19:26:34.685Z,101409.66
2023-02-19T19:28:40.675Z,101411.00
2023-02-19T19:30:43.888Z,101410.94
2023-02-19T19:32:48.885Z,101412.69
2023-02-19T19:34:51.749Z,101426.81
2023-02-19T19:36:54.608Z,101428.50
2023-02-19T19:38:57.446Z,101433.91
2023-02-19T19:41:01.692Z,101422.41
2023-02-19T19:43:04.618Z,101424.22
2023-02-19T19:45:09.381Z,101416.41
2023-02-19T19:47:12.279Z,101410.91
2023-02-19T19:49:18.661Z,101400.19
2023-02-19T19:51:21.552Z,101403.56
2023-02-19T19:53:24.404Z,101406.94
2023-02-19T19:55:27.444Z,101414.88
2023-02-19T19:57:32.001Z,101413.28
2023-02-19T19:59:36.899Z,101426.34
2023-02-19T20:01:41.413Z,101410.09
2023-02-19T20:03:44.363Z,101420.31
2023-02-19T20:05:47.902Z,101429.44
2023-02-19T20:07:50.896Z,101430.16
2023-02-19T20:09:53.988Z,101429.16
2023-02-19T20:11:57.137Z,101432.75
2023-02-19T20:14:01.733Z,101430.88
2023-02-19T20:16:06.096Z,101434.34
2023-02-19T20:18:09.098Z,101438.81
2023-02-19T20:20:12.481Z,101435.28
2023-02-19T20:22:15.374Z,101431.84
2023-02-19T20:24:19.185Z,101426.69
2023-02-19T20:26:23.543Z,101427.44
2023-02-19T20:28:26.473Z,101431.72
2023-02-19T20:30:30.702Z,101433.59
2023-02-19T20:32:33.658Z,101435.44
2023-02-19T20:34:38.164Z,101441.56
2023-02-19T20:36:43.651Z,101448.06
2023-02-19T20:38:46.684Z,101449.03
2023-02-19T20:40:49.793Z,101441.28
2023-02-19T20:42:53.003Z,101441.78
2023-02-19T20:44:57.438Z,101447.75
2023-02-19T20:47:01.983Z,101455.72
2023-02-19T20:49:04.822Z,101451.34
2023-02-19T20:51:07.697Z,101458.22
2023-02-19T20:53:11.126Z,101457.66
2023-02-19T20:55:14.056Z,101446.38
2023-02-19T20:57:16.920Z,101440.81
2023-02-19T20:59:21.585Z,101446.78
2023-02-19T21:01:27.030Z,101446.97
2023-02-19T21:03:31.310Z,101450.38
2023-02-19T21:05:34.276Z,101456.50
2023-02-19T21:07:37.127Z,101442.44
2023-02-19T21:09:40.038Z,101434.50
2023-02-19T21:11:44.605Z,101444.94
2023-02-19T21:13:47.791Z,101446.34
2023-02-19T21:15:50.699Z,101440.06
2023-02-19T21:17:53.724Z,101447.94
2023-02-19T21:19:57.953Z,101441.69
2023-02-19T21:22:01.138Z,101454.81
2023-02-19T21:24:06.020Z,101454.03
2023-02-19T21:26:08.954Z,101454.00
2023-02-19T21:28:12.448Z,101458.38
2023-02-19T21:30:15.461Z,101456.50
2023-02-19T21:32:18.461Z,101455.63
2023-02-19T21:34:23.210Z,101453.88
2023-02-19T21:36:27.505Z,101449.66
2023-02-19T21:38:32.403Z,101455.75
2023-02-19T21:40:35.444Z,101453.56
2023-02-19T21:42:38.302Z,101456.69
2023-02-19T21:44:44.381Z,101455.16
2023-02-19T21:46:47.294Z,101450.59
2023-02-19T21:48:50.260Z,101445.41
2023-02-19T21:50:53.192Z,101443.25
2023-02-19T21:52:57.379Z,101437.66
2023-02-19T21:55:00.257Z,101442.00
2023-02-19T21:57:04.503Z,101430.69
2023-02-19T21:59:07.657Z,101437.53
2023-02-19T22:01:10.676Z,101440.06
2023-02-19T22:03:16.270Z,101444.53
2023-02-19T22:05:19.276Z,101441.88
2023-02-19T22:07:22.516Z,101448.00
2023-02-19T22:09:26.787Z,101447.19
2023-02-19T22:11:29.767Z,101460.38
2023-02-19T22:13:32.777Z,101454.84
2023-02-19T22:15:35.747Z,101458.25
2023-02-19T22:17:39.347Z,101457.34
2023-02-19T22:19:42.336Z,101451.97
2023-02-19T22:21:45.797Z,101462.44
2023-02-19T22:23:49.690Z,101451.81
2023-02-19T22:25:54.188Z,101452.22
2023-02-19T22:27:59.440Z,101459.94
2023-02-19T22:30:03.010Z,101461.63
2023-02-19T22:32:06.340Z,101451.19
2023-02-19T22:34:09.518Z,101442.69
2023-02-19T22:36:17.246Z,101439.66
2023-02-19T22:38:20.175Z,101446.28
2023-02-19T22:40:23.250Z,101454.44
2023-02-19T22:42:29.291Z,101456.03
2023-02-19T22:44:32.168Z,101441.00
2023-02-19T22:46:35.040Z,101451.22
2023-02-19T22:48:37.890Z,101450.44
2023-02-19T22:50:40.742Z,101444.38
2023-02-19T22:52:43.562Z,101442.63
2023-02-19T22:54:46.735Z,101447.13
2023-02-19T22:56:49.626Z,101460.06
2023-02-19T22:58:54.226Z,101450.59
2023-02-19T23:00:57.095Z,101442.84
2023-02-19T23:03:00.234Z,101457.16
2023-02-19T23:05:03.315Z,101465.97
2023-02-19T23:07:07.112Z,101457.31
2023-02-19T23:09:11.748Z,101452.09
2023-02-19T23:11:14.772Z,101445.69
2023-02-19T23:13:17.624Z,101452.06
2023-02-19T23:15:22.063Z,101451.00
2023-02-19T23:17:24.890Z,101444.75
2023-02-19T23:19:28.144Z,101438.91
2023-02-19T23:21:31.825Z,101444.22
2023-02-19T23:23:35.048Z,101445.16
2023-02-19T23:25:38.057Z,101447.72
2023-02-19T23:27:41.211Z,101440.47
2023-02-19T23:29:44.071Z,101445.25
2023-02-19T23:31:49.388Z,101444.34
2023-02-19T23:33:52.362Z,101448.84
2023-02-19T23:35:55.195Z,101440.19
2023-02-19T23:37:58.049Z,101443.59
2023-02-19T23:40:01.249Z,101444.53
2023-02-19T23:42:04.466Z,101448.16
2023-02-19T23:44:07.346Z,101445.31
2023-02-19T23:46:11.041Z,101444.50
2023-02-19T23:48:15.429Z,101444.66
2023-02-19T23:50:18.713Z,101451.56
2023-02-19T23:52:21.593Z,101454.44
2023-02-19T23:54:24.485Z,101451.53
2023-02-19T23:56:29.034Z,101447.38